createdAt,value
2022-08-05T00:00:00.277Z,5
2022-08-05T00:05:00.112Z,5
2022-08-05T00:10:00.160Z,4.8
2022-08-05T00:15:00.113Z,4.8
2022-08-05T00:20:02.254Z,5.2
2022-08-05T00:25:00.123Z,5.2
2022-08-05T00:30:00.376Z,3.4
2022-08-05T00:35:05.941Z,3.4
2022-08-05T00:40:00.227Z,4.8
2022-08-05T00:45:00.134Z,4.8
2022-08-05T00:50:00.142Z,3.5
2022-08-05T00:55:00.124Z,3.5
2022-08-05T01:00:00.131Z,6.5
2022-08-05T01:05:00.115Z,6.5
2022-08-05T01:10:00.122Z,4
2022-08-05T01:15:00.106Z,4
2022-08-05T01:20:02.548Z,3.9
2022-08-05T01:25:00.142Z,3.9
2022-08-05T01:30:00.129Z,3.7
2022-08-05T01:35:00.123Z,3.7
2022-08-05T01:40:00.184Z,5.3
2022-08-05T01:45:00.114Z,5.3
2022-08-05T01:50:02.362Z,6.6
2022-08-05T01:55:00.440Z,6.6
2022-08-05T02:00:00.175Z,7.2
2022-08-05T02:05:00.131Z,7.2
2022-08-05T02:10:00.344Z,9.5
2022-08-05T02:15:00.114Z,9.5
2022-08-05T02:20:00.125Z,6.6
2022-08-05T02:25:00.361Z,6.6
2022-08-05T02:30:00.797Z,8.5
2022-08-05T02:35:02.060Z,8.5
2022-08-05T02:40:00.160Z,7.4
2022-08-05T02:45:00.119Z,7.4
2022-08-05T02:50:00.135Z,9.9
2022-08-05T02:55:01.648Z,9.9
2022-08-05T03:00:00.136Z,7.6
2022-08-05T03:05:00.111Z,7.6
2022-08-05T03:10:00.143Z,10
2022-08-05T03:15:00.129Z,10
2022-08-05T03:20:00.150Z,6.6
2022-08-05T03:25:02.186Z,6.6
2022-08-05T03:30:07.949Z,9.8
2022-08-05T03:35:00.123Z,9.8
2022-08-05T03:40:00.854Z,10.6
2022-08-05T03:45:01.666Z,10.6
2022-08-05T03:50:00.123Z,10.1
2022-08-05T03:55:54.482Z,10.1
2022-08-05T04:00:00.133Z,8.9
2022-08-05T04:05:00.107Z,8.9
2022-08-05T04:10:01.597Z,10.1
2022-08-05T04:15:00.136Z,10.1
2022-08-05T04:20:00.124Z,10.3
2022-08-05T04:25:00.116Z,10.3
2022-08-05T04:30:00.123Z,8.7
2022-08-05T04:35:00.116Z,8.7
2022-08-05T04:40:00.137Z,10
2022-08-05T04:45:01.008Z,10
2022-08-05T04:50:02.322Z,7
2022-08-05T04:55:00.132Z,7
2022-08-05T05:00:00.128Z,8.3
2022-08-05T05:05:02.090Z,8.3
2022-08-05T05:10:02.073Z,8.4
2022-08-05T05:15:00.115Z,8.4
2022-08-05T05:20:00.138Z,6.9
2022-08-05T05:25:01.252Z,6.9
2022-08-05T05:30:04.713Z,7.7
2022-08-05T05:35:00.136Z,7.7
2022-08-05T05:40:00.121Z,7.5
2022-08-05T05:45:00.095Z,7.5
2022-08-05T05:50:01.351Z,9.5
2022-08-05T05:55:00.120Z,9.5
2022-08-05T06:00:00.165Z,5.3
2022-08-05T06:05:00.200Z,5.3
2022-08-05T06:10:04.618Z,6.7
2022-08-05T06:15:00.096Z,6.7
2022-08-05T06:20:00.111Z,5.6
2022-08-05T06:25:00.110Z,5.6
2022-08-05T06:30:02.636Z,5.3
2022-08-05T06:35:00.102Z,5.3
2022-08-05T06:40:00.145Z,5.5
2022-08-05T06:45:00.107Z,5.5
2022-08-05T06:50:05.026Z,7.1
2022-08-05T06:55:00.111Z,7.1
2022-08-05T07:00:00.128Z,6.1
2022-08-05T07:05:00.101Z,6.1
2022-08-05T07:10:00.123Z,3.8
2022-08-05T07:15:00.105Z,3.8
2022-08-05T07:25:09.643Z,4.1
2022-08-05T07:30:22.410Z,4.6
2022-08-05T07:35:00.114Z,4.6
2022-08-05T07:40:04.816Z,4.7
2022-08-05T07:45:00.102Z,4.7
2022-08-05T07:50:00.126Z,5.2
2022-08-05T07:55:00.122Z,5.2
2022-08-05T08:00:00.146Z,5.3
2022-08-05T08:05:00.121Z,5.3
2022-08-05T08:10:00.144Z,6.9
2022-08-05T08:15:01.974Z,6.9
2022-08-05T08:20:11.014Z,6.3
2022-08-05T08:25:02.978Z,6.3
2022-08-05T08:30:03.453Z,4.5
2022-08-05T08:35:00.113Z,4.5
2022-08-05T08:40:00.284Z,5
2022-08-05T08:45:21.853Z,5
2022-08-05T08:50:07.952Z,4.3
2022-08-05T08:55:00.125Z,4.3
2022-08-05T09:00:00.143Z,5.2
2022-08-05T09:05:16.202Z,5.2
2022-08-05T09:10:00.143Z,7
2022-08-05T09:15:04.827Z,7
2022-08-05T09:20:02.082Z,5.2
2022-08-05T09:25:00.134Z,5.2
2022-08-05T09:30:03.388Z,6.8
2022-08-05T09:35:00.105Z,6.8
2022-08-05T09:40:00.230Z,3.8
2022-08-05T09:45:03.546Z,3.8
2022-08-05T09:50:01.895Z,4.8
2022-08-05T09:55:00.119Z,4.8
2022-08-05T10:00:01.817Z,5.6
2022-08-05T10:05:00.126Z,5.6
2022-08-05T10:10:04.527Z,4.6
2022-08-05T10:15:00.124Z,4.6
2022-08-05T10:20:03.401Z,4.6
2022-08-05T10:25:00.160Z,4.6
2022-08-05T10:30:07.382Z,5
2022-08-05T10:35:00.747Z,5
2022-08-05T10:40:04.358Z,5.5
2022-08-05T10:45:00.120Z,5.5
2022-08-05T10:50:21.086Z,4.5
2022-08-05T10:55:00.167Z,4.5
2022-08-05T11:00:01.650Z,5
2022-08-05T11:05:00.217Z,5
2022-08-05T11:10:03.862Z,4.8
2022-08-05T11:15:01.676Z,4.8
2022-08-05T11:20:09.600Z,5.4
2022-08-05T11:25:16.383Z,5.4
2022-08-05T11:30:00.173Z,3.8
2022-08-05T11:35:00.118Z,3.8
2022-08-05T11:40:03.339Z,3.2
2022-08-05T11:45:00.103Z,3.2
2022-08-05T11:50:00.130Z,5.7
2022-08-05T11:55:07.240Z,5.7
2022-08-05T12:00:00.141Z,3.2
2022-08-05T12:05:00.433Z,3.2
2022-08-05T12:10:04.468Z,3.2
2022-08-05T12:15:00.131Z,3.2
2022-08-05T12:20:17.500Z,3.4
2022-08-05T12:25:00.142Z,3.4
2022-08-05T12:30:00.116Z,4.2
2022-08-05T12:35:00.105Z,4.2
2022-08-05T12:40:03.411Z,2.6
2022-08-05T12:45:00.110Z,2.6
2022-08-05T12:50:02.898Z,3
2022-08-05T12:55:00.134Z,3
2022-08-05T13:00:09.121Z,4.7
2022-08-05T13:05:00.109Z,4.7
2022-08-05T13:10:00.121Z,4.8
2022-08-05T13:15:05.807Z,4.8
2022-08-05T13:20:00.163Z,4
2022-08-05T13:25:00.519Z,4
2022-08-05T13:30:31.586Z,5.6
2022-08-05T13:35:00.104Z,5.6
2022-08-05T13:40:14.784Z,5.4
2022-08-05T13:45:00.099Z,5.4
2022-08-05T13:50:00.148Z,4.3
2022-08-05T13:55:01.121Z,4.3
2022-08-05T14:00:01.795Z,4.5
2022-08-05T14:05:00.594Z,4.5
2022-08-05T14:10:00.138Z,4.6
2022-08-05T14:15:00.111Z,4.6
2022-08-05T14:20:04.770Z,4.2
2022-08-05T14:25:00.119Z,4.2
2022-08-05T14:30:00.134Z,5.5
2022-08-05T14:35:00.118Z,5.5
2022-08-05T14:40:00.229Z,5.8
2022-08-05T14:45:00.106Z,5.8
2022-08-05T14:50:04.847Z,6.9
2022-08-05T14:55:01.144Z,6.9
2022-08-05T15:00:00.150Z,5.1
2022-08-05T15:05:00.096Z,5.1
2022-08-05T15:10:01.308Z,6.3
2022-08-05T15:15:00.104Z,6.3
2022-08-05T15:20:00.154Z,7.3
2022-08-05T15:25:00.214Z,7.3
2022-08-05T15:30:00.151Z,6
2022-08-05T15:35:00.112Z,6
2022-08-05T15:40:42.047Z,6.6
2022-08-05T15:45:00.114Z,6.6
2022-08-05T15:50:00.217Z,6.9
2022-08-05T15:55:00.136Z,6.9
2022-08-05T16:00:00.163Z,6.4
2022-08-05T16:05:00.125Z,6.4
2022-08-05T16:10:00.137Z,6.2
2022-08-05T16:15:00.102Z,6.2
2022-08-05T16:20:03.827Z,7.5
2022-08-05T16:25:00.124Z,7.5
2022-08-05T16:30:00.150Z,7.3
2022-08-05T16:35:00.104Z,7.3
2022-08-05T16:40:05.429Z,7.7
2022-08-05T16:45:00.099Z,7.7
2022-08-05T16:50:00.137Z,13.4
2022-08-05T16:55:00.153Z,13.4
2022-08-05T17:00:01.643Z,7.7
2022-08-05T17:05:00.133Z,7.7
2022-08-05T17:10:00.218Z,12.8
2022-08-05T17:15:00.127Z,12.8
2022-08-05T17:20:00.118Z,18.9
2022-08-05T17:25:00.383Z,18.9
2022-08-05T17:30:00.781Z,12.2
2022-08-05T17:35:00.128Z,12.2
2022-08-05T17:40:00.473Z,10.4
2022-08-05T17:45:00.114Z,10.4
2022-08-05T17:50:04.389Z,10.1
2022-08-05T17:55:00.143Z,10.1
2022-08-05T18:00:03.951Z,11.9
2022-08-05T18:05:00.242Z,11.9
2022-08-05T18:10:01.958Z,12.4
2022-08-05T18:15:00.122Z,12.4
2022-08-05T18:20:00.152Z,11.2
2022-08-05T18:25:00.149Z,11.2
2022-08-05T18:30:00.180Z,14.2
2022-08-05T18:35:00.128Z,14.2
2022-08-05T18:40:31.914Z,7.8
2022-08-05T18:45:00.193Z,7.8
2022-08-05T18:50:00.452Z,10
2022-08-05T18:55:00.162Z,10
2022-08-05T19:00:02.117Z,7.8
2022-08-05T19:05:01.923Z,7.8
2022-08-05T19:10:00.141Z,7.6
2022-08-05T19:15:02.553Z,7.6
2022-08-05T19:20:00.122Z,6.8
2022-08-05T19:25:00.129Z,6.8
2022-08-05T19:30:00.135Z,8.1
2022-08-05T19:35:00.105Z,8.1
2022-08-05T19:40:00.214Z,8
2022-08-05T19:45:00.101Z,8
2022-08-05T19:50:00.146Z,7.3
2022-08-05T19:55:00.340Z,7.3
2022-08-05T20:00:02.272Z,5.5
2022-08-05T20:05:00.278Z,5.5
2022-08-05T20:10:00.184Z,6.8
2022-08-05T20:15:00.129Z,6.8
2022-08-05T20:20:00.146Z,5.5
2022-08-05T20:25:00.174Z,5.5
2022-08-05T20:30:00.183Z,3.6
2022-08-05T20:35:00.112Z,3.6
2022-08-05T20:40:00.275Z,3.7
2022-08-05T20:45:00.738Z,3.7
2022-08-05T20:50:01.943Z,5.1
2022-08-05T20:55:55.746Z,5.1
2022-08-05T21:00:10.904Z,5.4
2022-08-05T21:05:01.218Z,5.4
2022-08-05T21:10:00.158Z,3.4
2022-08-05T21:15:00.120Z,3.4
2022-08-05T21:20:03.066Z,4.8
2022-08-05T21:25:00.134Z,4.8
2022-08-05T21:30:01.715Z,5.5
2022-08-05T21:35:09.174Z,5.5
2022-08-05T21:40:00.128Z,3.6
2022-08-05T21:45:00.323Z,3.6
2022-08-05T21:50:01.374Z,4.4
2022-08-05T21:55:06.111Z,4.4
2022-08-05T22:00:11.041Z,3.8
2022-08-05T22:05:00.154Z,3.8
2022-08-05T22:10:00.162Z,4.5
2022-08-05T22:15:00.136Z,4.5
2022-08-05T22:20:06.123Z,3.5
2022-08-05T22:25:00.147Z,3.5
2022-08-05T22:30:00.140Z,5.2
2022-08-05T22:35:00.120Z,5.2
2022-08-05T22:40:00.283Z,4.7
2022-08-05T22:45:00.114Z,4.7
2022-08-05T22:50:18.748Z,3.4
2022-08-05T22:55:00.161Z,3.4
2022-08-05T23:00:00.137Z,3.8
2022-08-05T23:05:01.668Z,3.8
2022-08-05T23:10:01.893Z,4.7
2022-08-05T23:15:00.093Z,4.7
2022-08-05T23:20:00.146Z,3.8
2022-08-05T23:25:00.125Z,3.8
2022-08-05T23:30:00.119Z,3
2022-08-05T23:35:00.098Z,3
2022-08-05T23:40:00.273Z,2.8
2022-08-05T23:45:00.131Z,2.8
2022-08-05T23:50:00.134Z,3.6
2022-08-05T23:55:00.138Z,3.6
